Time;durP1;ratioP1;P1;durP2;ratioP2;P2;SDS_P1;SDS_P2;PMS_P1;PMS_P2;Temp;Humidity;BMP_temperature;BMP_pressure;BME280_temperature;BME280_humidity;BME280_pressure;Samples;Min_cycle;Max_cycle;Signal;HPM_P1;HPM_P2
2023/10/09 00:01:13;;;;;;;0.00;0.00;;;;;;;13.64;88.18;101046.34;4937537;28;20046;-73
2023/10/09 00:03:43;;;;;;;0.00;0.00;;;;;;;13.58;88.29;101033.69;4943183;28;20031;-73
2023/10/09 00:06:10;;;;;;;0.00;0.00;;;;;;;13.58;88.11;101044.66;4949228;28;20022;-73
2023/10/09 00:08:37;;;;;;;0.00;0.00;;;;;;;13.58;88.30;101050.16;4911780;28;20054;-72
2023/10/09 00:11:18;;;;;;;0.00;0.00;;;;;;;13.56;88.47;101047.69;4948637;28;20433;-72
2023/10/09 00:13:52;;;;;;;0.00;0.00;;;;;;;13.51;88.17;101039.44;4912263;28;20027;-74
2023/10/09 00:16:34;;;;;;;0.00;0.00;;;;;;;13.61;87.96;101030.41;4925286;29;20028;-73
2023/10/09 00:19:47;;;;;;;0.00;0.00;;;;;;;13.71;87.99;101029.59;4944691;28;20376;-73
2023/10/09 00:21:49;;;;;;;0.00;0.00;;;;;;;13.75;87.46;101027.94;4941511;28;20051;-74
2023/10/09 00:24:24;;;;;;;0.00;0.00;;;;;;;13.76;87.65;101024.94;4929412;28;20031;-74
2023/10/09 00:27:11;;;;;;;0.00;0.00;;;;;;;13.84;87.61;101026.31;4941782;28;20384;-76
2023/10/09 00:29:43;;;;;;;0.00;0.00;;;;;;;13.85;87.30;101021.66;4962361;28;20034;-73
2023/10/09 00:35:36;;;;;;;0.10;0.10;;;;;;;13.87;86.81;101024.94;4930373;28;20130;-75
2023/10/09 00:37:51;;;;;;;0.00;0.00;;;;;;;13.90;86.81;101027.13;4915840;28;20063;-74
2023/10/09 00:40:27;;;;;;;0.00;0.00;;;;;;;13.84;86.72;101014.50;4925086;28;20129;-73
2023/10/09 00:42:55;;;;;;;0.00;0.00;;;;;;;13.80;87.07;101019.72;4914598;28;20054;-74
2023/10/09 00:45:32;;;;;;;0.00;0.00;;;;;;;13.75;87.27;101011.47;4937577;29;20027;-73
2023/10/09 00:48:02;;;;;;;0.00;0.00;;;;;;;13.68;87.15;101006.25;4933071;28;20043;-73
2023/10/09 00:50:35;;;;;;;0.00;0.00;;;;;;;13.63;87.46;101014.47;4942661;28;20031;-73
2023/10/09 00:53:02;;;;;;;0.00;0.00;;;;;;;13.61;87.37;101016.69;4932135;28;20258;-73
2023/10/09 00:55:44;;;;;;;0.00;0.00;;;;;;;13.56;87.63;101009.22;4947840;28;20408;-76
2023/10/09 00:58:13;;;;;;;0.00;0.00;;;;;;;13.51;87.90;101013.91;4965101;28;20022;-76
2023/10/09 01:00:46;;;;;;;0.00;0.00;;;;;;;13.46;88.33;101011.13;4965839;28;20408;-74
2023/10/09 01:05:52;;;;;;;0.00;0.00;;;;;;;13.41;88.52;101021.00;4966928;28;20035;-75
2023/10/09 01:11:18;;;;;;;0.00;0.00;;;;;;;13.29;89.17;101009.41;4945402;28;20484;-74
2023/10/09 01:16:17;;;;;;;0.00;0.00;;;;;;;13.29;89.91;101009.41;4963208;28;20409;-75
2023/10/09 01:18:56;;;;;;;0.00;0.00;;;;;;;13.30;89.72;101005.56;4944996;28;20039;-73
2023/10/09 01:21:24;;;;;;;0.00;0.00;;;;;;;13.28;90.04;100996.78;4962050;28;20169;-75
2023/10/09 01:24:03;;;;;;;0.00;0.00;;;;;;;13.34;89.73;101012.19;4928731;28;20117;-75
2023/10/09 01:26:54;;;;;;;0.00;0.00;;;;;;;13.32;89.88;101003.38;4946136;28;20031;-74
2023/10/09 01:29:21;;;;;;;0.00;0.00;;;;;;;13.30;89.27;101011.06;4967311;28;20093;-74
2023/10/09 01:31:54;;;;;;;0.00;0.00;;;;;;;13.25;89.62;101002.81;4961283;28;20015;-74
2023/10/09 01:34:24;;;;;;;0.00;0.00;;;;;;;13.24;89.08;100996.50;4942667;28;20038;-74
2023/10/09 01:36:54;;;;;;;0.00;0.00;;;;;;;13.24;89.58;101006.66;4961427;28;20050;-75
2023/10/09 01:39:30;;;;;;;0.00;0.00;;;;;;;13.17;89.18;100995.09;4944250;28;20034;-76
2023/10/09 01:42:05;;;;;;;0.00;0.00;;;;;;;13.16;89.85;100998.94;4928094;28;20533;-74
2023/10/09 01:44:34;;;;;;;0.00;0.00;;;;;;;13.07;89.69;100991.22;4940892;28;20686;-75
2023/10/09 01:47:13;;;;;;;0.00;0.00;;;;;;;13.10;89.63;100996.16;4972070;28;20401;-74
2023/10/09 01:49:41;;;;;;;0.00;0.00;;;;;;;13.05;89.71;100998.91;4951283;28;22779;-75
2023/10/09 01:52:09;;;;;;;0.00;0.00;;;;;;;12.98;89.81;100986.50;4952994;28;20432;-76
2023/10/09 01:54:38;;;;;;;0.00;0.00;;;;;;;12.91;89.85;100981.28;4961394;28;20646;-74
2023/10/09 01:57:13;;;;;;;0.00;0.00;;;;;;;12.85;89.89;100985.06;4965399;28;20049;-73
2023/10/09 01:59:43;;;;;;;0.10;0.10;;;;;;;12.75;90.00;100989.44;4953911;28;20562;-72
2023/10/09 02:02:25;;;;;;;0.00;0.00;;;;;;;12.70;90.67;100983.09;4958299;28;20045;-73
2023/10/09 02:05:05;;;;;;;0.00;0.00;;;;;;;12.69;90.47;100993.25;4961746;28;20038;-75
2023/10/09 02:07:40;;;;;;;0.00;0.00;;;;;;;12.60;90.67;100983.88;4975978;28;20127;-74
2023/10/09 02:10:25;;;;;;;0.00;0.00;;;;;;;12.56;90.80;100985.50;4962709;28;21176;-74
2023/10/09 02:12:59;;;;;;;0.00;0.00;;;;;;;12.52;90.81;100989.84;4963532;28;20050;-74
2023/10/09 02:23:30;;;;;;;0.05;0.05;;;;;;;12.34;91.54;101000.16;4967401;28;20126;-74
2023/10/09 02:26:04;;;;;;;0.00;0.00;;;;;;;12.27;91.48;100999.56;4951606;28;20034;-73
2023/10/09 02:28:34;;;;;;;0.00;0.00;;;;;;;12.20;91.46;100983.31;4952806;28;20039;-75
2023/10/09 02:31:02;;;;;;;0.00;0.00;;;;;;;12.17;91.09;100994.00;4952161;28;20031;-74
2023/10/09 02:33:28;;;;;;;0.00;0.00;;;;;;;12.11;91.51;100984.09;4980886;28;20062;-77
2023/10/09 02:35:55;;;;;;;0.00;0.00;;;;;;;12.06;91.73;100982.13;4954188;28;20034;-76
2023/10/09 02:38:23;;;;;;;0.00;0.00;;;;;;;11.97;91.35;100984.56;4955029;28;20050;-74
2023/10/09 02:43:40;;;;;;;0.00;0.00;;;;;;;11.95;91.26;100986.72;4961954;28;20100;-76
2023/10/09 02:46:14;;;;;;;0.00;0.00;;;;;;;11.91;91.29;100979.25;4970537;28;20821;-76
2023/10/09 02:48:45;;;;;;;0.00;0.00;;;;;;;11.91;91.28;100976.50;4967325;28;20118;-75
2023/10/09 02:51:17;;;;;;;0.00;0.00;;;;;;;11.90;91.24;100978.44;4979080;28;20286;-75
2023/10/09 02:53:43;;;;;;;0.00;0.00;;;;;;;11.89;91.27;100971.28;4971495;28;20101;-75
2023/10/09 02:56:16;;;;;;;0.00;0.00;;;;;;;11.87;91.58;100968.81;4974085;28;20058;-74
2023/10/09 02:58:42;;;;;;;0.00;0.00;;;;;;;11.86;91.73;100977.28;4968774;28;20030;-76
2023/10/09 03:01:13;;;;;;;0.00;0.00;;;;;;;11.82;91.76;100967.94;4972186;28;20031;-74
2023/10/09 03:03:45;;;;;;;0.00;0.00;;;;;;;11.76;91.81;100960.75;4966606;28;20023;-74
2023/10/09 03:06:12;;;;;;;0.00;0.00;;;;;;;11.67;91.97;100953.00;4950888;28;20026;-72
2023/10/09 03:08:38;;;;;;;0.00;0.00;;;;;;;11.66;92.17;100956.84;4960157;28;20490;-72
2023/10/09 03:11:05;;;;;;;0.00;0.00;;;;;;;11.62;92.53;100958.47;4972554;28;20057;-73
2023/10/09 03:13:33;;;;;;;0.00;0.00;;;;;;;11.65;92.11;100966.16;4961938;28;20179;-74
2023/10/09 03:15:59;;;;;;;0.08;0.08;;;;;;;11.59;92.33;100958.13;4955649;28;20027;-74
2023/10/09 03:18:24;;;;;;;0.00;0.00;;;;;;;11.56;92.26;100955.94;4967180;28;20050;-73
2023/10/09 03:20:50;;;;;;;0.00;0.00;;;;;;;11.51;92.53;100956.72;4970007;28;20380;-74
2023/10/09 03:23:16;;;;;;;0.00;0.00;;;;;;;11.50;93.06;100958.59;4951521;28;20465;-75
2023/10/09 03:25:45;;;;;;;0.00;0.00;;;;;;;11.50;93.07;100957.78;4974968;28;20045;-75
2023/10/09 03:28:11;;;;;;;0.00;0.00;;;;;;;11.45;92.97;100952.28;4977605;28;20039;-75
2023/10/09 03:30:40;;;;;;;0.00;0.00;;;;;;;11.37;93.31;100953.53;4962672;28;20031;-73
2023/10/09 03:33:06;;;;;;;0.05;0.05;;;;;;;11.34;94.11;100960.34;4945975;28;20378;-74
2023/10/09 03:35:34;;;;;;;0.00;0.00;;;;;;;11.28;94.17;100955.09;4947170;28;20057;-74
2023/10/09 03:38:17;;;;;;;0.00;0.00;;;;;;;11.22;94.52;100951.47;4973288;28;20045;-76
2023/10/09 03:40:44;;;;;;;0.00;0.00;;;;;;;11.21;94.57;100949.81;4979240;28;20564;-76
2023/10/09 03:43:13;;;;;;;0.00;0.00;;;;;;;11.18;94.56;100944.88;4972984;28;20485;-75
2023/10/09 03:45:45;;;;;;;0.00;0.00;;;;;;;11.14;94.68;100954.66;4967610;28;20493;-76
2023/10/09 03:48:21;;;;;;;0.00;0.00;;;;;;;11.12;95.14;100941.25;4973880;28;20057;-76
2023/10/09 03:50:47;;;;;;;0.00;0.00;;;;;;;11.14;95.87;100939.09;4970646;28;20375;-73
2023/10/09 03:53:13;;;;;;;0.00;0.00;;;;;;;11.18;96.52;100939.38;4933008;28;20058;-73
2023/10/09 03:55:40;;;;;;;0.00;0.00;;;;;;;11.14;96.87;100924.56;4967610;28;20038;-74
2023/10/09 03:58:12;;;;;;;0.00;0.00;;;;;;;11.17;98.03;100937.75;4979394;28;20041;-72
2023/10/09 04:00:49;;;;;;;0.00;0.00;;;;;;;11.12;97.74;100945.91;4963990;28;20520;-72
2023/10/09 04:03:15;;;;;;;0.10;0.10;;;;;;;11.05;98.43;100946.09;4964503;28;20034;-72
2023/10/09 04:05:42;;;;;;;0.00;0.00;;;;;;;11.03;98.45;100947.44;4946358;28;20069;-73
2023/10/09 04:08:19;;;;;;;0.00;0.00;;;;;;;10.98;98.60;100939.97;4959340;28;20039;-72
2023/10/09 04:10:51;;;;;;;0.00;0.00;;;;;;;11.00;98.87;100949.59;4939782;28;20760;-73
2023/10/09 04:13:22;;;;;;;0.00;0.00;;;;;;;10.94;98.87;100945.16;4946940;28;20691;-72
2023/10/09 04:15:53;;;;;;;0.00;0.00;;;;;;;10.91;98.69;100934.72;4969739;28;20030;-74
2023/10/09 04:18:20;;;;;;;0.00;0.00;;;;;;;11.03;99.27;100947.44;4949612;28;20082;-74
2023/10/09 04:23:59;;;;;;;0.00;0.00;;;;;;;11.14;99.37;100940.97;4963494;28;20066;-73
2023/10/09 04:26:24;;;;;;;0.00;0.00;;;;;;;11.15;99.50;100931.69;4966316;28;20035;-75
2023/10/09 04:28:52;;;;;;;0.00;0.00;;;;;;;11.28;99.66;100933.19;4971747;28;20027;-74
2023/10/09 04:31:21;;;;;;;0.00;0.00;;;;;;;11.33;99.40;100935.97;4964421;28;20038;-73
2023/10/09 04:34:21;;;;;;;0.00;0.00;;;;;;;11.40;99.51;100933.84;4943987;28;20042;-74
2023/10/09 04:36:49;;;;;;;0.10;0.10;;;;;;;11.45;99.62;100938.59;4965002;28;20039;-73
2023/10/09 04:39:37;;;;;;;0.00;0.00;;;;;;;11.55;99.33;100944.16;4951676;28;20027;-74
2023/10/09 04:42:36;;;;;;;0.00;0.00;;;;;;;11.62;99.24;100944.75;4963043;28;20042;-75
2023/10/09 04:47:37;;;;;;;0.00;0.00;;;;;;;11.59;99.22;100933.50;4935377;28;20065;-76
2023/10/09 04:50:14;;;;;;;0.00;0.00;;;;;;;11.75;98.89;100951.69;4964326;28;20031;-77
2023/10/09 04:52:51;;;;;;;0.00;0.00;;;;;;;11.74;98.92;100946.47;4965018;28;20030;-76
2023/10/09 04:55:20;;;;;;;0.00;0.00;;;;;;;11.83;99.43;100958.63;4947229;28;20421;-75
2023/10/09 04:58:00;;;;;;;0.00;0.00;;;;;;;11.85;98.50;100950.97;4959865;28;20038;-74
2023/10/09 05:02:57;;;;;;;0.00;0.00;;;;;;;11.90;99.17;100959.25;4967623;28;20057;-74
2023/10/09 05:05:58;;;;;;;0.00;0.00;;;;;;;11.92;98.67;100959.81;4955738;28;20045;-75
2023/10/09 05:08:21;;;;;;;0.00;0.00;;;;;;;11.96;98.27;100960.97;4964042;28;20118;-75
2023/10/09 05:11:05;;;;;;;0.00;0.00;;;;;;;11.98;98.14;100963.44;4951038;28;20043;-75
2023/10/09 05:16:26;;;;;;;0.00;0.00;;;;;;;11.99;98.34;100945.91;4966338;28;20381;-76
2023/10/09 05:18:56;;;;;;;0.00;0.00;;;;;;;11.98;99.05;100950.56;4970487;28;20030;-74
2023/10/09 05:21:36;;;;;;;0.00;0.00;;;;;;;12.01;98.62;100947.28;4962694;28;20118;-75
2023/10/09 05:32:15;;;;;;;0.00;0.00;;;;;;;12.02;98.60;100954.44;4960473;28;20030;-74
2023/10/09 05:37:33;;;;;;;0.00;0.00;;;;;;;11.92;98.31;100959.81;4965451;28;20058;-72
2023/10/09 05:42:42;;;;;;;0.00;0.00;;;;;;;11.77;98.25;100978.84;4967728;28;20421;-75
2023/10/09 05:48:48;;;;;;;0.00;0.00;;;;;;;11.65;98.86;100979.84;4967978;28;20054;-74
2023/10/09 06:04:19;;;;;;;0.00;0.00;;;;;;;11.48;98.28;100962.72;4955989;28;20062;-75
2023/10/09 06:06:46;;;;;;;0.00;0.00;;;;;;;11.51;97.84;100970.41;4941607;28;20043;-75
2023/10/09 06:12:33;;;;;;;0.00;0.00;;;;;;;11.58;97.70;100976.50;4969315;28;20041;-76
2023/10/09 06:29:35;;;;;;;0.00;0.00;;;;;;;11.87;96.48;100984.41;4949708;28;20046;-74
2023/10/09 06:35:15;;;;;;;0.00;0.00;;;;;;;11.95;96.04;100986.72;4956463;28;20098;-72
2023/10/09 06:38:40;;;;;;;0.00;0.00;;;;;;;12.01;96.23;100995.81;4957161;28;20035;-73
2023/10/09 06:43:26;;;;;;;0.00;0.00;;;;;;;12.17;95.46;100988.53;4954820;28;20134;-72
2023/10/09 06:45:58;;;;;;;0.00;0.00;;;;;;;12.22;95.65;100985.81;4970570;28;20031;-73
2023/10/09 06:51:34;;;;;;;0.00;0.00;;;;;;;12.36;95.19;100992.50;4954094;28;20048;-71
2023/10/09 06:54:04;;;;;;;0.03;0.03;;;;;;;12.44;95.26;101004.06;4961397;28;20019;-73
2023/10/09 07:02:25;;;;;;;0.00;0.00;;;;;;;12.55;94.80;100979.16;4961110;28;20037;-73
2023/10/09 07:07:07;;;;;;;0.00;0.00;;;;;;;12.57;94.49;100987.13;4947132;28;20835;-74
2023/10/09 07:09:42;;;;;;;0.00;0.00;;;;;;;12.62;94.55;101011.88;4964552;28;20035;-73
2023/10/09 07:12:25;;;;;;;0.00;0.00;;;;;;;12.74;94.47;101004.22;4961688;28;20035;-74
2023/10/09 07:17:23;;;;;;;0.00;0.00;;;;;;;12.90;94.07;100985.09;4928609;28;20030;-74
2023/10/09 07:22:29;;;;;;;0.00;0.00;;;;;;;13.06;93.78;100973.09;4963331;28;20410;-74
2023/10/09 07:32:55;;;;;;;0.00;0.00;;;;;;;13.64;92.18;100977.66;4966915;28;20473;-73
2023/10/09 07:35:57;;;;;;;0.00;0.00;;;;;;;13.72;91.70;100970.78;4961249;28;20030;-73
2023/10/09 07:38:22;;;;;;;0.00;0.00;;;;;;;13.94;91.22;100987.00;4942274;28;20070;-75
2023/10/09 07:43:45;;;;;;;0.00;0.00;;;;;;;14.20;90.22;101012.56;4961047;28;19936;-72
2023/10/09 07:46:32;;;;;;;0.00;0.00;;;;;;;14.24;89.76;101008.19;4951379;28;20054;-74
2023/10/09 07:49:08;;;;;;;0.00;0.00;;;;;;;14.37;89.30;101028.81;4964118;28;20034;-74
2023/10/09 07:51:35;;;;;;;0.00;0.00;;;;;;;14.55;88.85;101032.09;4959870;28;20026;-75
2023/10/09 07:54:14;;;;;;;0.00;0.00;;;;;;;14.62;88.75;101025.22;4959515;28;20027;-76
2023/10/09 07:56:41;;;;;;;0.00;0.00;;;;;;;14.78;88.71;101039.75;4962591;28;20117;-75
2023/10/09 07:59:11;;;;;;;0.00;0.00;;;;;;;14.91;88.17;101032.00;4943524;28;20681;-73
2023/10/09 08:01:52;;;;;;;0.00;0.00;;;;;;;15.02;87.95;101028.13;4938542;28;20035;-74
2023/10/09 08:04:37;;;;;;;0.00;0.00;;;;;;;15.30;87.09;101029.38;4940769;28;20027;-72
2023/10/09 08:07:07;;;;;;;0.00;0.00;;;;;;;15.60;86.53;101037.78;4962929;28;20037;-73
2023/10/09 08:09:46;;;;;;;0.00;0.00;;;;;;;15.88;85.71;101045.31;4948798;28;20035;-73
2023/10/09 08:12:39;;;;;;;0.00;0.00;;;;;;;16.10;85.31;101044.06;4952493;28;20038;-75
2023/10/09 08:15:21;;;;;;;0.00;0.00;;;;;;;16.12;83.46;101055.63;4965242;28;20492;-76
2023/10/09 08:17:56;;;;;;;0.00;0.00;;;;;;;15.95;82.77;101056.03;4968456;28;20153;-75
2023/10/09 08:20:36;;;;;;;0.00;0.00;;;;;;;16.10;82.53;101063.38;4959824;28;20133;-76
2023/10/09 08:23:04;;;;;;;0.00;0.00;;;;;;;16.27;82.17;101087.78;4944262;28;20454;-75
2023/10/09 08:25:35;;;;;;;0.00;0.00;;;;;;;16.49;82.50;101065.25;4955193;28;20039;-76
2023/10/09 08:31:34;;;;;;;0.00;0.00;;;;;;;16.77;81.30;101029.63;4947949;28;21369;-75
2023/10/09 08:36:04;;;;;;;0.00;0.00;;;;;;;17.19;80.96;101058.44;4933496;28;20037;-76
2023/10/09 08:38:33;;;;;;;0.00;0.00;;;;;;;17.47;80.37;101072.47;4950543;28;20027;-75
2023/10/09 08:41:18;;;;;;;0.00;0.00;;;;;;;17.69;78.84;101037.88;4956138;28;20030;-75
2023/10/09 08:43:53;;;;;;;0.00;0.00;;;;;;;18.05;78.22;101034.59;4959860;28;20027;-75
2023/10/09 08:46:27;;;;;;;0.00;0.00;;;;;;;18.47;76.77;101046.59;4947100;28;20033;-74
2023/10/09 08:48:58;;;;;;;0.00;0.00;;;;;;;18.91;75.96;101059.13;4943716;28;21004;-74
2023/10/09 08:51:25;;;;;;;0.00;0.00;;;;;;;19.18;74.62;101060.25;4936951;28;20067;-73
2023/10/09 08:53:52;;;;;;;0.00;0.00;;;;;;;19.27;74.26;101050.06;4950690;28;20018;-74
2023/10/09 08:56:22;;;;;;;0.00;0.00;;;;;;;19.42;74.38;101061.97;4951096;28;20030;-74
2023/10/09 08:58:51;;;;;;;0.00;0.00;;;;;;;19.51;73.66;101076.75;4940858;28;20122;-74
2023/10/09 09:01:21;;;;;;;0.00;0.00;;;;;;;19.56;73.32;101101.59;4952014;28;20026;-74
2023/10/09 09:03:50;;;;;;;0.00;0.00;;;;;;;19.48;72.82;101085.69;4962892;28;20023;-74
2023/10/09 09:06:19;;;;;;;0.00;0.00;;;;;;;19.52;72.80;101072.84;4961677;28;20034;-74
2023/10/09 09:08:45;;;;;;;0.00;0.00;;;;;;;19.57;72.77;101053.31;4956982;28;20412;-75
2023/10/09 09:14:06;;;;;;;0.00;0.00;;;;;;;19.69;72.46;101053.56;4953623;28;20031;-75
2023/10/09 09:16:35;;;;;;;0.00;0.00;;;;;;;19.73;72.29;101056.56;4944253;28;20030;-74
2023/10/09 09:19:17;;;;;;;0.00;0.00;;;;;;;19.91;72.32;101068.66;4948667;28;20101;-74
2023/10/09 09:21:49;;;;;;;0.00;0.00;;;;;;;20.40;71.57;101089.13;4955249;28;20043;-73
2023/10/09 09:26:46;;;;;;;0.00;0.00;;;;;;;20.55;70.88;101075.97;4945848;28;20096;-76
2023/10/09 09:29:19;;;;;;;0.00;0.00;;;;;;;20.70;70.83;101078.38;4937810;28;20073;-75
2023/10/09 09:31:53;;;;;;;0.00;0.00;;;;;;;21.22;70.03;101096.44;4943443;28;20034;-74
2023/10/09 09:34:25;;;;;;;0.00;0.00;;;;;;;21.50;68.62;101093.41;4947826;28;20462;-77
2023/10/09 09:36:54;;;;;;;0.00;0.00;;;;;;;21.72;67.35;101082.16;4956207;28;20525;-77
2023/10/09 09:39:29;;;;;;;0.00;0.00;;;;;;;22.20;66.35;101087.91;4919531;28;20023;-75
2023/10/09 09:42:04;;;;;;;0.00;0.00;;;;;;;22.87;64.83;101088.41;4958598;28;20034;-75
2023/10/09 09:44:43;;;;;;;0.00;0.00;;;;;;;23.50;63.18;101086.66;4965895;28;20030;-76
2023/10/09 09:47:12;;;;;;;0.00;0.00;;;;;;;24.12;60.84;101092.63;4960801;28;20030;-76
2023/10/09 09:49:41;;;;;;;0.00;0.00;;;;;;;25.01;59.01;101087.78;4952706;28;20402;-76
2023/10/09 09:52:12;;;;;;;0.00;0.00;;;;;;;25.53;57.02;101081.47;4939764;28;20023;-76
2023/10/09 09:54:38;;;;;;;0.00;0.00;;;;;;;25.55;56.82;101078.31;4935190;28;20031;-76
2023/10/09 09:57:10;;;;;;;0.00;0.00;;;;;;;25.65;54.11;101077.03;4930988;28;20049;-75
2023/10/09 09:59:40;;;;;;;0.00;0.00;;;;;;;25.29;53.22;101081.47;4954876;28;20244;-74
2023/10/09 10:02:10;;;;;;;0.00;0.00;;;;;;;25.19;54.65;101064.00;4956957;28;20054;-77
2023/10/09 10:04:39;;;;;;;0.00;0.00;;;;;;;25.10;52.00;101057.69;4946643;28;20034;-76
2023/10/09 10:07:15;;;;;;;0.00;0.00;;;;;;;25.60;51.75;101066.91;4960893;28;21267;-75
2023/10/09 10:09:45;;;;;;;0.00;0.00;;;;;;;26.60;49.22;101059.72;4927826;28;20034;-74
2023/10/09 10:12:11;;;;;;;0.00;0.00;;;;;;;27.25;47.31;101067.78;4953320;28;20050;-75
2023/10/09 10:14:59;;;;;;;0.00;0.00;;;;;;;27.98;44.64;101073.88;4961763;28;20034;-77
2023/10/09 10:17:29;;;;;;;0.00;0.00;;;;;;;28.76;43.78;101069.34;4952443;28;20038;-76
2023/10/09 10:20:40;;;;;;;0.00;0.00;;;;;;;28.93;42.85;101071.63;4943150;28;20039;-76
2023/10/09 10:22:48;;;;;;;0.00;0.00;;;;;;;28.99;41.06;101067.31;4947139;28;20039;-76
2023/10/09 10:25:49;;;;;;;0.00;0.00;;;;;;;28.87;40.76;101070.34;4960219;28;20038;-75
2023/10/09 10:28:44;;;;;;;0.00;0.00;;;;;;;28.99;41.11;101072.13;4954543;28;20434;-76
2023/10/09 10:31:11;;;;;;;0.00;0.00;;;;;;;29.71;40.01;101090.94;4961553;28;20058;-75
2023/10/09 10:33:53;;;;;;;0.00;0.00;;;;;;;31.43;37.77;101077.00;4939988;28;20064;-75
2023/10/09 10:36:22;;;;;;;0.00;0.00;;;;;;;33.69;34.64;101072.19;4961453;28;20597;-76
2023/10/09 10:39:04;;;;;;;0.00;0.00;;;;;;;36.99;31.36;101067.28;4957936;28;20129;-75
2023/10/09 10:41:35;;;;;;;0.00;0.00;;;;;;;39.88;26.06;101078.56;4959166;28;20031;-75
2023/10/09 10:46:51;;;;;;;0.00;0.00;;;;;;;42.30;21.93;101093.22;4954165;28;20165;-75
2023/10/09 10:49:21;;;;;;;0.00;0.00;;;;;;;42.58;21.12;101090.44;4946291;28;20038;-75
2023/10/09 10:52:01;;;;;;;0.00;0.00;;;;;;;44.06;20.72;101079.03;4958786;28;20031;-75
2023/10/09 10:56:59;;;;;;;0.00;0.00;;;;;;;45.24;18.67;101080.13;4962990;28;20038;-76
2023/10/09 10:59:33;;;;;;;0.00;0.00;;;;;;;45.58;17.87;101083.72;4949252;28;20027;-75
2023/10/09 11:12:38;;;;;;;0.00;0.00;;;;;;;46.79;16.85;101069.38;4958292;28;20031;-76
2023/10/09 11:18:27;;;;;;;0.00;0.00;;;;;;;48.72;16.34;101077.78;4937447;28;20034;-76
2023/10/09 11:23:36;;;;;;;0.00;0.00;;;;;;;50.65;14.88;101072.22;4955960;28;20043;-75
2023/10/09 11:29:14;;;;;;;0.00;0.00;;;;;;;51.88;13.71;101068.34;4951138;28;20049;-75
2023/10/09 11:32:09;;;;;;;0.00;0.00;;;;;;;53.33;13.85;101072.22;4948176;28;20090;-76
2023/10/09 11:34:36;;;;;;;0.00;0.00;;;;;;;54.62;13.43;101055.88;4944145;28;20023;-75
2023/10/09 11:37:11;;;;;;;0.00;0.00;;;;;;;55.56;12.95;101048.41;4932451;28;20031;-76
2023/10/09 11:39:50;;;;;;;0.00;0.00;;;;;;;56.20;13.39;101040.31;4943423;28;20027;-77
2023/10/09 11:42:35;;;;;;;0.00;0.00;;;;;;;56.51;10.65;101040.50;4948323;28;20493;-76
2023/10/09 11:55:32;;;;;;;0.00;0.00;;;;;;;58.29;9.58;100968.00;4821019;29;20039;-77
2023/10/09 11:57:58;;;;;;;0.00;0.00;;;;;;;59.18;9.73;100993.69;4898946;29;20024;-77
2023/10/09 12:00:29;;;;;;;0.00;0.00;;;;;;;60.22;9.65;100983.44;4940666;28;20481;-77
2023/10/09 12:02:56;;;;;;;0.00;0.00;;;;;;;60.63;9.41;100978.03;4959209;28;20481;-76
2023/10/09 12:05:27;;;;;;;0.00;0.00;;;;;;;61.25;9.46;100959.34;4955409;28;21450;-77
2023/10/09 12:07:54;;;;;;;0.00;0.00;;;;;;;61.23;9.46;100956.25;4958732;28;20039;-76
2023/10/09 12:10:25;;;;;;;0.00;0.00;;;;;;;58.64;10.31;100938.81;4945952;28;20049;-76
2023/10/09 12:12:57;;;;;;;0.00;0.00;;;;;;;55.61;11.64;100927.31;4958896;28;20095;-80
2023/10/09 12:15:36;;;;;;;0.00;0.00;;;;;;;52.96;12.51;100924.91;4959953;28;20462;-76
2023/10/09 12:18:08;;;;;;;0.00;0.00;;;;;;;53.97;12.67;100915.69;4940477;28;20050;-77
2023/10/09 12:20:35;;;;;;;0.00;0.00;;;;;;;56.76;11.29;100914.56;4960093;28;20066;-77
2023/10/09 12:23:05;;;;;;;0.00;0.00;;;;;;;57.50;10.94;100915.81;4942980;28;20027;-77
2023/10/09 12:25:32;;;;;;;0.00;0.00;;;;;;;58.15;10.53;100917.44;4955115;28;20022;-77
2023/10/09 12:28:02;;;;;;;0.00;0.00;;;;;;;58.92;9.89;100898.59;4930260;28;20928;-78
2023/10/09 12:30:37;;;;;;;0.00;0.00;;;;;;;59.64;9.67;100898.13;4945656;28;20071;-78
2023/10/09 12:33:03;;;;;;;0.00;0.00;;;;;;;60.28;9.16;100889.53;4960968;28;20564;-77
2023/10/09 12:35:33;;;;;;;0.00;0.00;;;;;;;61.09;9.06;100870.97;4954939;28;20675;-77
2023/10/09 12:38:09;;;;;;;0.00;0.00;;;;;;;61.70;8.53;100885.22;4955629;28;20121;-77
2023/10/09 12:40:39;;;;;;;0.00;0.00;;;;;;;61.91;7.97;100881.63;4949811;28;20030;-78
2023/10/09 12:43:05;;;;;;;0.00;0.00;;;;;;;61.96;8.45;100877.59;4963935;28;20536;-77
2023/10/09 12:45:33;;;;;;;0.00;0.00;;;;;;;62.39;7.93;100898.56;4941194;28;20121;-77
2023/10/09 12:47:59;;;;;;;0.00;0.00;;;;;;;62.27;8.07;100886.56;4958104;28;20034;-78
2023/10/09 12:50:34;;;;;;;0.00;0.00;;;;;;;62.04;7.52;100901.91;4941407;28;20470;-77
2023/10/09 12:53:06;;;;;;;0.00;0.00;;;;;;;60.68;7.55;100903.16;4963160;28;20022;-76
2023/10/09 12:55:41;;;;;;;0.00;0.00;;;;;;;60.03;8.26;100896.34;4943011;28;20015;-76
2023/10/09 12:58:09;;;;;;;0.00;0.00;;;;;;;59.53;8.13;100896.50;4944301;28;20073;-75
2023/10/09 13:00:43;;;;;;;0.00;0.00;;;;;;;59.47;7.95;100901.84;4951960;28;20485;-79
2023/10/09 13:03:16;;;;;;;0.00;0.00;;;;;;;58.45;8.46;100900.28;4943632;28;20050;-77
2023/10/09 13:05:56;;;;;;;0.00;0.00;;;;;;;57.45;8.95;100889.56;4959053;28;20508;-76
2023/10/09 13:08:21;;;;;;;0.00;0.00;;;;;;;56.28;9.01;100894.47;4946534;28;20033;-76
2023/10/09 13:10:58;;;;;;;0.00;0.00;;;;;;;55.42;9.14;100868.94;4954604;28;20031;-75
2023/10/09 13:13:40;;;;;;;0.00;0.00;;;;;;;54.56;9.67;100883.31;4957937;28;20023;-77
2023/10/09 13:16:14;;;;;;;0.00;0.00;;;;;;;54.15;10.14;100876.78;4931044;28;20030;-76
2023/10/09 13:18:41;;;;;;;0.00;0.00;;;;;;;54.06;9.98;100865.53;4960581;28;20453;-77
2023/10/09 13:21:07;;;;;;;0.00;0.00;;;;;;;54.34;9.56;100873.72;4955753;28;20398;-76
2023/10/09 13:23:39;;;;;;;0.00;0.00;;;;;;;53.85;9.94;100851.59;4909301;28;20039;-76
2023/10/09 13:26:29;;;;;;;0.00;0.00;;;;;;;54.51;10.03;100849.91;4953321;28;20027;-75
2023/10/09 13:28:56;;;;;;;0.00;0.00;;;;;;;54.98;9.76;100841.59;4939356;28;20094;-75
2023/10/09 13:31:25;;;;;;;0.00;0.00;;;;;;;55.00;9.88;100844.75;4950369;28;20041;-76
2023/10/09 13:33:55;;;;;;;0.00;0.00;;;;;;;55.35;10.13;100851.28;4942578;28;20026;-76
2023/10/09 13:36:33;;;;;;;0.00;0.00;;;;;;;55.68;9.17;100849.56;4943877;28;20022;-76
2023/10/09 13:39:26;;;;;;;0.00;0.00;;;;;;;55.21;9.60;100841.81;4953759;28;20023;-78
2023/10/09 13:41:59;;;;;;;0.00;0.00;;;;;;;55.63;9.78;100838.78;4955845;28;20038;-76
2023/10/09 13:44:29;;;;;;;0.00;0.00;;;;;;;56.15;9.08;100830.06;4949172;28;20035;-77
2023/10/09 13:46:56;;;;;;;0.00;0.00;;;;;;;55.31;8.73;100827.41;4932415;28;20031;-77
2023/10/09 13:49:22;;;;;;;0.00;0.00;;;;;;;55.09;9.49;100824.53;4947475;28;20023;-77
2023/10/09 13:51:50;;;;;;;0.00;0.00;;;;;;;54.39;9.98;100825.22;4927454;28;20039;-76
2023/10/09 13:55:14;;;;;;;0.00;0.00;;;;;;;55.00;9.74;100824.25;4944671;28;20110;-76
2023/10/09 13:57:07;;;;;;;0.00;0.00;;;;;;;55.83;9.64;100825.41;4950667;28;20045;-79
2023/10/09 13:59:35;;;;;;;0.00;0.00;;;;;;;56.52;9.39;100824.91;4942847;28;20038;-77
2023/10/09 14:02:02;;;;;;;0.00;0.00;;;;;;;55.28;9.47;100827.22;4955817;28;20045;-77
2023/10/09 14:04:28;;;;;;;0.00;0.00;;;;;;;54.18;10.07;100820.09;4954741;28;20035;-78
2023/10/09 14:06:58;;;;;;;0.00;0.00;;;;;;;53.73;9.97;100815.22;4945840;28;20093;-79
2023/10/09 14:09:28;;;;;;;0.00;0.00;;;;;;;51.97;10.76;100826.00;4920137;28;20039;-78
2023/10/09 14:12:07;;;;;;;0.00;0.00;;;;;;;49.82;12.27;100810.25;4946536;28;20039;-77
2023/10/09 14:14:38;;;;;;;0.00;0.00;;;;;;;50.06;12.49;100813.34;4944507;28;20027;-79
2023/10/09 14:17:11;;;;;;;0.00;0.00;;;;;;;50.17;12.69;100817.53;4949741;28;20412;-78
2023/10/09 14:19:41;;;;;;;0.00;0.00;;;;;;;50.68;12.70;100820.94;4947724;28;20038;-78
2023/10/09 14:22:07;;;;;;;0.00;0.00;;;;;;;50.87;12.72;100821.03;4932875;28;20047;-78
2023/10/09 14:24:34;;;;;;;0.00;0.00;;;;;;;50.45;12.14;100809.41;4959760;28;20069;-79
2023/10/09 14:27:07;;;;;;;0.00;0.00;;;;;;;49.53;12.39;100800.81;4964356;28;20547;-77
2023/10/09 14:29:37;;;;;;;0.00;0.00;;;;;;;48.55;12.98;100790.56;4945838;28;20023;-78
2023/10/09 14:32:13;;;;;;;0.00;0.00;;;;;;;47.53;14.16;100812.53;4951891;28;20023;-78